Shilong, China
Current Conditions -  °F | °C
As of 3:00 PM on Thursday 23 Oct 2014 (Local Time) from ZGSZ Reporting Station
Broken Clouds Broken Clouds  
Wind Chill: 81°   Ceiling: 3100
Heat Index: 82°   Visibility: 5mi
Dew Point: 64°   Wind: 4mph
Humidity: 58%   Direction: 60°ENE
Pressure: 29.97"   Gusts: NA
Location:  23.11°N, 113.83°E
Report Text: ZGSZ 230700Z 06002MPS 020V110 8000 BKN031 27/18 Q1015 NOSIG
Loading
Personal Weather Stations






























Interactive Weather Map
Tropical Storm Tracking
New forecast layout! Learn more

10-Day Weather Forecast

Advertisements
Track Severe Weather on mobile